Eynon, Pennsylvania
Current Conditions -  °F | °C
As of 12:54 AM on Saturday 29 Nov 2014 (Local Time) from KAVP Reporting Station
Overcast Overcast  
Wind Chill:   Ceiling: 10000
Heat Index: 15°   Visibility: 10mi
Dew Point:   Wind: 7mph
Humidity: 77%   Direction: 190°S
Pressure: 30.23"   Gusts: NA
Location:  41.5069°N, 75.5327°W
Report Text: KAVP 290554Z 19006KT 10SM BKN100 OVC120 M09/M13 A3023 RMK AO2 SLP249 T10941128 11061 21100 53004
Loading
Personal Weather Stations






























Interactive Weather Map New forecast layout! Learn more

10-Day Weather Forecast

Advertisements
Track Severe Weather on mobile